Time;durP1;ratioP1;P1;durP2;ratioP2;P2;SDS_P1;SDS_P2;PMS_P1;PMS_P2;Temp;Humidity;BMP_temperature;BMP_pressure;BME280_temperature;BME280_humidity;BME280_pressure;Samples;Min_cycle;Max_cycle;Signal;HPM_P1;HPM_P2
2022/09/29 00:01:43;;;;;;;5.60;3.28;;;7.50;99.90;;;;;;5041474;28;20135;-64
2022/09/29 00:04:10;;;;;;;5.47;2.60;;;7.50;99.90;;;;;;5032783;28;20430;-64
2022/09/29 00:06:37;;;;;;;5.63;3.05;;;7.60;99.90;;;;;;5019910;28;20066;-64
2022/09/29 00:09:04;;;;;;;7.30;2.67;;;7.60;99.90;;;;;;5018853;28;20114;-64
2022/09/29 00:11:30;;;;;;;7.22;2.92;;;7.60;99.90;;;;;;5028964;28;20049;-64
2022/09/29 00:13:57;;;;;;;5.90;2.65;;;7.50;99.90;;;;;;5053606;28;20053;-64
2022/09/29 00:16:24;;;;;;;8.65;2.72;;;7.60;99.90;;;;;;5015738;28;20500;-64
2022/09/29 00:18:53;;;;;;;9.27;3.33;;;7.50;99.90;;;;;;5038149;28;20038;-63
2022/09/29 00:21:20;;;;;;;6.22;3.70;;;7.40;99.90;;;;;;5045523;28;20059;-63
2022/09/29 00:23:48;;;;;;;5.30;3.15;;;7.40;99.90;;;;;;5033198;28;20068;-64
2022/09/29 00:26:19;;;;;;;6.30;2.80;;;7.30;99.90;;;;;;5023503;28;20049;-63
2022/09/29 00:28:48;;;;;;;7.00;2.63;;;7.40;99.90;;;;;;5016835;28;20099;-63
2022/09/29 00:31:15;;;;;;;7.63;3.20;;;7.40;99.90;;;;;;5041359;28;20128;-63
2022/09/29 00:33:42;;;;;;;5.85;2.50;;;7.30;99.90;;;;;;5033775;28;20083;-63
2022/09/29 00:36:13;;;;;;;4.95;2.38;;;7.40;99.90;;;;;;5040204;28;20041;-64
2022/09/29 00:38:40;;;;;;;3.83;2.33;;;7.40;99.90;;;;;;5017967;28;20053;-63
2022/09/29 00:41:07;;;;;;;6.18;3.22;;;7.30;99.90;;;;;;5021776;28;20045;-64
2022/09/29 00:43:54;;;;;;;5.00;2.30;;;7.30;99.90;;;;;;5052049;28;20041;-63
2022/09/29 00:46:25;;;;;;;6.82;2.92;;;7.30;99.90;;;;;;5021316;28;20045;-64
2022/09/29 00:48:53;;;;;;;4.95;2.83;;;7.30;99.90;;;;;;5001719;28;20133;-63
2022/09/29 00:51:20;;;;;;;4.80;2.53;;;7.30;99.90;;;;;;5021850;28;20132;-63
2022/09/29 00:53:47;;;;;;;7.25;2.17;;;7.30;99.90;;;;;;5017418;28;20051;-63
2022/09/29 00:56:16;;;;;;;5.43;2.63;;;7.30;99.90;;;;;;5021993;28;20496;-63
2022/09/29 00:58:53;;;;;;;4.88;2.60;;;7.30;99.90;;;;;;5051352;28;20144;-63
2022/09/29 01:01:24;;;;;;;5.30;2.47;;;7.20;99.90;;;;;;5023864;28;20475;-63
2022/09/29 01:03:52;;;;;;;4.25;2.58;;;7.20;99.90;;;;;;5017317;28;20542;-63
2022/09/29 01:06:20;;;;;;;5.40;2.72;;;7.20;99.90;;;;;;5041173;28;20060;-63
2022/09/29 01:08:50;;;;;;;7.22;2.42;;;7.20;99.90;;;;;;5029454;28;20071;-63
2022/09/29 01:11:19;;;;;;;5.78;2.58;;;7.20;99.90;;;;;;5043546;28;20132;-63
2022/09/29 01:13:45;;;;;;;4.60;2.50;;;7.20;99.90;;;;;;5013272;28;20476;-63
2022/09/29 01:16:12;;;;;;;5.38;2.58;;;7.20;99.90;;;;;;5014037;28;20053;-63
2022/09/29 01:18:39;;;;;;;6.47;2.90;;;7.20;99.90;;;;;;5033821;28;20052;-64
2022/09/29 01:21:33;;;;;;;4.10;2.40;;;7.10;99.90;;;;;;5047679;28;20063;-63
2022/09/29 01:24:25;;;;;;;5.10;2.67;;;7.10;99.90;;;;;;5046483;28;20049;-63
2022/09/29 01:27:01;;;;;;;5.60;2.50;;;7.10;99.90;;;;;;5025036;28;20056;-63
2022/09/29 01:29:56;;;;;;;7.30;2.65;;;7.10;99.90;;;;;;5048758;28;20056;-63
2022/09/29 01:32:41;;;;;;;3.72;2.05;;;7.00;99.90;;;;;;5039685;28;20063;-65
2022/09/29 01:35:14;;;;;;;6.30;2.22;;;7.00;99.90;;;;;;5031533;28;20053;-63
2022/09/29 01:37:53;;;;;;;6.53;2.15;;;7.00;99.90;;;;;;5018016;28;20128;-63
2022/09/29 01:40:33;;;;;;;7.28;2.95;;;7.00;99.90;;;;;;5013774;28;20167;-63
2022/09/29 01:43:08;;;;;;;5.55;2.35;;;7.00;99.90;;;;;;5043527;28;20135;-63
2022/09/29 01:45:41;;;;;;;7.85;2.42;;;6.90;99.90;;;;;;4998490;28;20050;-63
2022/09/29 01:48:10;;;;;;;5.18;2.78;;;6.90;99.90;;;;;;5013662;28;20072;-62
2022/09/29 01:50:43;;;;;;;6.32;2.55;;;6.90;99.90;;;;;;4997786;28;20061;-63
2022/09/29 01:53:15;;;;;;;4.05;2.28;;;6.90;99.90;;;;;;5013885;28;20175;-63
2022/09/29 01:55:46;;;;;;;3.75;2.63;;;6.90;99.90;;;;;;4997835;28;20132;-63
2022/09/29 01:58:18;;;;;;;9.73;3.08;;;6.80;99.90;;;;;;5024958;28;20572;-64
2022/09/29 02:00:49;;;;;;;5.68;2.08;;;6.80;99.90;;;;;;5013609;28;20301;-63
2022/09/29 02:03:34;;;;;;;4.22;2.15;;;6.80;99.90;;;;;;5026608;28;20067;-64
2022/09/29 02:06:03;;;;;;;4.32;2.25;;;6.80;99.90;;;;;;4997119;28;20056;-64
2022/09/29 02:08:31;;;;;;;3.85;2.28;;;6.70;99.90;;;;;;5028902;28;20045;-64
2022/09/29 02:11:03;;;;;;;5.82;2.13;;;6.70;99.90;;;;;;5032450;28;20049;-64
2022/09/29 02:13:41;;;;;;;5.13;2.33;;;6.70;99.90;;;;;;5022540;28;20064;-64
2022/09/29 02:16:13;;;;;;;4.03;1.90;;;6.70;99.90;;;;;;5015156;28;20052;-64
2022/09/29 02:18:46;;;;;;;3.53;2.20;;;6.70;99.90;;;;;;5041889;28;20579;-63
2022/09/29 02:21:13;;;;;;;4.47;2.07;;;6.60;99.90;;;;;;5003562;28;20059;-64
2022/09/29 02:23:40;;;;;;;6.57;2.30;;;6.60;99.90;;;;;;5050587;28;20108;-64
2022/09/29 02:26:06;;;;;;;4.60;2.67;;;6.60;99.90;;;;;;5043747;28;20045;-64
2022/09/29 02:28:33;;;;;;;4.22;1.98;;;6.60;99.90;;;;;;5023261;28;20045;-64
2022/09/29 02:31:00;;;;;;;4.88;2.28;;;6.60;99.90;;;;;;5024397;28;20045;-64
2022/09/29 02:33:27;;;;;;;4.40;2.20;;;6.60;99.90;;;;;;5019957;28;20115;-64
2022/09/29 02:36:11;;;;;;;5.97;4.22;;;6.50;99.90;;;;;;5043486;28;20069;-63
2022/09/29 02:38:47;;;;;;;6.20;2.55;;;6.50;99.90;;;;;;5003433;28;20046;-64
2022/09/29 02:41:36;;;;;;;5.30;2.63;;;6.40;99.90;;;;;;5007935;28;20060;-64
2022/09/29 02:44:38;;;;;;;3.45;2.00;;;6.40;99.90;;;;;;5022989;28;20060;-64
2022/09/29 02:47:34;;;;;;;4.70;2.13;;;6.40;99.90;;;;;;5051727;28;20053;-64
2022/09/29 02:50:20;;;;;;;4.13;2.25;;;6.40;99.90;;;;;;4983459;28;20054;-64
2022/09/29 02:52:59;;;;;;;4.25;2.45;;;6.30;99.90;;;;;;5033891;28;20415;-65
2022/09/29 02:55:37;;;;;;;3.85;2.10;;;6.30;99.90;;;;;;5046112;28;20052;-64
2022/09/29 02:58:14;;;;;;;3.17;2.10;;;6.30;99.90;;;;;;4985465;28;20053;-66
2022/09/29 03:00:41;;;;;;;6.53;2.72;;;6.30;99.90;;;;;;5017077;28;20045;-64
2022/09/29 03:03:08;;;;;;;6.63;2.03;;;6.30;99.90;;;;;;4984047;28;20076;-63
2022/09/29 03:05:36;;;;;;;3.83;2.65;;;6.30;99.90;;;;;;5045903;28;20055;-63
2022/09/29 03:08:03;;;;;;;5.68;2.40;;;6.30;99.90;;;;;;5033718;28;20413;-63
2022/09/29 03:10:29;;;;;;;6.15;2.00;;;6.30;99.90;;;;;;5043598;28;20049;-63
2022/09/29 03:12:56;;;;;;;8.32;2.63;;;6.30;99.90;;;;;;5018225;28;20081;-63
2022/09/29 03:15:23;;;;;;;7.68;2.30;;;6.30;99.90;;;;;;5041264;28;20045;-63
2022/09/29 03:17:50;;;;;;;3.53;1.65;;;6.30;99.90;;;;;;5020429;28;20072;-63
2022/09/29 03:20:16;;;;;;;5.43;2.25;;;6.30;99.90;;;;;;5021119;28;20049;-63
2022/09/29 03:22:43;;;;;;;3.13;2.03;;;6.20;99.90;;;;;;5040198;28;20053;-64
2022/09/29 03:25:10;;;;;;;5.63;2.50;;;6.20;99.90;;;;;;5036479;28;20049;-63
2022/09/29 03:27:38;;;;;;;8.25;2.10;;;6.20;99.90;;;;;;5024886;28;20046;-63
2022/09/29 03:30:05;;;;;;;4.53;2.30;;;6.10;99.90;;;;;;5016670;28;20144;-63
2022/09/29 03:32:32;;;;;;;4.30;2.20;;;6.10;99.90;;;;;;5015601;28;20055;-63
2022/09/29 03:34:58;;;;;;;4.45;2.13;;;6.10;99.90;;;;;;5033013;28;20489;-63
2022/09/29 03:37:25;;;;;;;2.92;1.92;;;6.10;99.90;;;;;;5044318;28;20120;-63
2022/09/29 03:39:52;;;;;;;6.80;2.92;;;6.10;99.90;;;;;;5015597;28;20493;-63
2022/09/29 03:42:22;;;;;;;2.88;2.00;;;6.10;99.90;;;;;;5045411;28;20076;-63
2022/09/29 03:44:49;;;;;;;10.57;2.40;;;6.10;99.90;;;;;;5033541;28;20053;-63
2022/09/29 03:47:16;;;;;;;3.85;2.45;;;6.10;99.90;;;;;;5045536;28;20128;-63
2022/09/29 03:49:43;;;;;;;7.60;2.58;;;6.00;99.90;;;;;;5015337;28;20488;-63
2022/09/29 03:52:11;;;;;;;7.80;2.20;;;5.90;99.90;;;;;;5027467;28;20044;-63
2022/09/29 03:54:38;;;;;;;3.92;2.30;;;5.90;99.90;;;;;;5015207;28;20052;-63
2022/09/29 03:57:05;;;;;;;5.00;2.38;;;6.00;99.90;;;;;;5043098;28;20048;-63
2022/09/29 03:59:32;;;;;;;4.35;2.47;;;6.00;99.90;;;;;;5017426;28;20148;-63
2022/09/29 04:01:59;;;;;;;4.63;2.58;;;5.90;99.90;;;;;;5040595;28;20051;-63
2022/09/29 04:04:25;;;;;;;4.45;2.58;;;5.90;99.90;;;;;;5047150;28;20045;-63
2022/09/29 04:06:52;;;;;;;4.30;2.35;;;6.00;99.90;;;;;;5048165;28;20045;-63
2022/09/29 04:09:19;;;;;;;3.55;1.83;;;5.90;99.90;;;;;;5021256;28;20060;-63
2022/09/29 04:11:46;;;;;;;4.40;2.63;;;5.90;99.90;;;;;;5036131;28;20045;-63
2022/09/29 04:14:13;;;;;;;4.75;2.15;;;5.80;99.90;;;;;;5041197;28;20053;-63
2022/09/29 04:16:39;;;;;;;9.68;2.65;;;5.80;99.90;;;;;;5033508;28;20125;-63
2022/09/29 04:19:06;;;;;;;3.92;2.35;;;5.80;99.90;;;;;;5034842;28;20442;-63
2022/09/29 04:21:33;;;;;;;3.83;2.17;;;5.70;99.90;;;;;;5041677;28;20129;-63
2022/09/29 04:24:00;;;;;;;4.07;2.58;;;5.70;99.90;;;;;;5043175;28;20045;-63
2022/09/29 04:26:27;;;;;;;3.58;2.03;;;5.70;99.90;;;;;;5014667;28;20497;-63
2022/09/29 04:28:54;;;;;;;4.22;1.90;;;5.70;99.90;;;;;;5043866;28;20049;-63
2022/09/29 04:31:21;;;;;;;4.35;2.85;;;5.70;99.90;;;;;;4998480;28;20132;-63
2022/09/29 04:33:48;;;;;;;7.50;2.65;;;5.80;99.90;;;;;;5044149;28;20056;-63
2022/09/29 04:36:15;;;;;;;7.10;2.40;;;5.80;99.90;;;;;;5032086;28;20053;-63
2022/09/29 04:38:41;;;;;;;4.38;2.25;;;5.80;99.90;;;;;;5044020;28;20491;-63
2022/09/29 04:41:08;;;;;;;6.88;2.08;;;5.80;99.90;;;;;;5031261;28;20135;-63
2022/09/29 04:43:35;;;;;;;6.43;2.50;;;5.80;99.90;;;;;;5024105;28;20422;-64
2022/09/29 04:46:03;;;;;;;6.43;2.63;;;5.80;99.90;;;;;;5014248;28;20045;-63
2022/09/29 04:48:30;;;;;;;8.25;2.45;;;5.80;99.90;;;;;;5010132;28;20083;-63
2022/09/29 04:51:02;;;;;;;4.10;1.92;;;5.80;99.90;;;;;;5047974;28;20049;-64
2022/09/29 04:53:29;;;;;;;4.35;2.45;;;5.90;99.90;;;;;;5029762;28;20492;-63
2022/09/29 04:55:56;;;;;;;4.13;2.33;;;5.90;99.90;;;;;;5020113;28;20109;-62
2022/09/29 04:58:23;;;;;;;3.63;2.40;;;6.00;99.90;;;;;;5017875;28;20047;-63
2022/09/29 05:00:49;;;;;;;7.38;2.42;;;6.00;99.90;;;;;;5040064;28;20053;-63
2022/09/29 05:03:16;;;;;;;4.55;2.33;;;6.00;99.90;;;;;;5033397;28;20049;-63
2022/09/29 05:05:43;;;;;;;7.80;2.47;;;6.10;99.90;;;;;;5042163;28;20529;-63
2022/09/29 05:08:10;;;;;;;4.88;2.55;;;6.10;99.90;;;;;;5015282;28;20055;-63
2022/09/29 05:10:37;;;;;;;4.63;2.85;;;6.20;99.90;;;;;;5024748;28;20046;-63
2022/09/29 05:13:03;;;;;;;6.80;2.58;;;6.20;99.90;;;;;;5032614;28;20137;-63
2022/09/29 05:15:30;;;;;;;5.07;2.80;;;6.30;99.90;;;;;;5042863;28;20503;-63
2022/09/29 05:18:01;;;;;;;4.85;2.72;;;6.30;99.90;;;;;;5014119;28;20128;-64
2022/09/29 05:20:27;;;;;;;3.15;2.15;;;6.40;99.90;;;;;;5014084;28;20409;-64
2022/09/29 05:23:08;;;;;;;3.95;2.38;;;6.40;99.90;;;;;;5015866;28;20075;-64
2022/09/29 05:25:36;;;;;;;4.80;2.47;;;6.50;99.90;;;;;;5043358;28;20057;-64
2022/09/29 05:28:03;;;;;;;6.88;2.30;;;6.50;99.90;;;;;;5011838;28;20136;-64
2022/09/29 05:30:30;;;;;;;7.65;2.53;;;6.50;99.90;;;;;;5026028;28;20440;-64
2022/09/29 05:32:57;;;;;;;12.75;2.88;;;6.60;99.90;;;;;;4997869;28;20136;-64
2022/09/29 05:35:24;;;;;;;4.72;2.25;;;6.60;99.90;;;;;;5024634;28;20057;-64
2022/09/29 05:37:51;;;;;;;9.98;4.30;;;6.70;99.90;;;;;;5015146;28;20049;-62
2022/09/29 05:40:18;;;;;;;11.23;3.03;;;6.60;99.90;;;;;;5022161;28;20561;-63
2022/09/29 05:42:46;;;;;;;10.73;2.60;;;6.60;99.90;;;;;;5034998;28;20045;-64
2022/09/29 05:45:13;;;;;;;4.20;2.40;;;6.70;99.90;;;;;;5037606;28;20498;-63
2022/09/29 05:47:43;;;;;;;6.72;2.88;;;6.70;99.90;;;;;;5019497;28;20049;-63
2022/09/29 05:50:13;;;;;;;6.20;2.80;;;6.80;99.90;;;;;;4690584;28;9999985;-65
2022/09/29 05:52:39;;;;;;;9.85;3.20;;;6.80;99.90;;;;;;5031263;28;20508;-64
2022/09/29 05:55:10;;;;;;;4.80;3.10;;;6.90;99.90;;;;;;5030594;28;20049;-63
2022/09/29 05:57:40;;;;;;;7.38;2.70;;;6.90;99.90;;;;;;5045133;28;20142;-66
2022/09/29 06:00:07;;;;;;;5.72;2.95;;;7.00;99.90;;;;;;5032996;28;20069;-64
2022/09/29 06:02:34;;;;;;;5.88;2.88;;;7.00;99.90;;;;;;5023082;28;20057;-65
2022/09/29 06:05:00;;;;;;;5.30;2.65;;;7.00;99.90;;;;;;5049916;28;20535;-66
2022/09/29 06:07:27;;;;;;;8.30;2.72;;;7.10;99.90;;;;;;5040449;28;20471;-65
2022/09/29 06:09:54;;;;;;;5.03;2.40;;;7.10;99.90;;;;;;5033354;28;20045;-63
2022/09/29 06:12:24;;;;;;;12.73;2.58;;;7.20;99.90;;;;;;5038507;28;20127;-65
2022/09/29 06:14:50;;;;;;;5.22;2.08;;;7.20;99.90;;;;;;5051274;28;20048;-65
2022/09/29 06:17:17;;;;;;;7.88;2.13;;;7.20;99.90;;;;;;5026547;28;20055;-65
2022/09/29 06:19:44;;;;;;;4.32;2.03;;;7.20;99.90;;;;;;5031278;28;20053;-64
2022/09/29 06:22:11;;;;;;;3.67;2.22;;;7.30;99.90;;;;;;4994985;28;20103;-65
2022/09/29 06:24:38;;;;;;;3.75;1.92;;;7.30;99.90;;;;;;5050928;28;20135;-65
2022/09/29 06:27:05;;;;;;;4.72;3.20;;;7.40;99.90;;;;;;5040490;28;20515;-67
2022/09/29 06:29:32;;;;;;;6.00;2.42;;;7.40;99.90;;;;;;5049360;28;20526;-64
2022/09/29 06:31:59;;;;;;;5.57;2.10;;;7.40;99.90;;;;;;5042977;28;20077;-65
2022/09/29 06:34:26;;;;;;;6.72;2.22;;;7.50;99.90;;;;;;5046625;28;20063;-65
2022/09/29 06:39:38;;;;;;;6.75;2.72;;;7.60;99.90;;;;;;5032256;28;20145;-66
2022/09/29 06:42:05;;;;;;;6.35;3.40;;;7.60;99.90;;;;;;5008924;28;20140;-66
2022/09/29 06:44:32;;;;;;;4.85;3.10;;;7.70;99.90;;;;;;5044427;28;20056;-65
2022/09/29 06:46:59;;;;;;;6.88;2.65;;;7.70;99.90;;;;;;5046422;28;20526;-65
2022/09/29 06:49:25;;;;;;;4.15;2.47;;;7.80;99.90;;;;;;5041013;28;20530;-63
2022/09/29 06:51:52;;;;;;;5.03;2.45;;;7.90;99.90;;;;;;5043600;28;20132;-64
2022/09/29 06:54:20;;;;;;;6.15;2.75;;;7.90;99.90;;;;;;5038800;28;20053;-64
2022/09/29 06:56:48;;;;;;;3.92;2.33;;;7.90;99.90;;;;;;5013495;28;20398;-64
2022/09/29 06:59:15;;;;;;;5.57;2.20;;;7.90;99.90;;;;;;5010231;28;20053;-64
2022/09/29 07:01:42;;;;;;;5.45;2.72;;;8.00;99.90;;;;;;5028852;28;20440;-64
2022/09/29 07:04:09;;;;;;;7.00;2.72;;;8.00;99.90;;;;;;5040816;28;20049;-64
2022/09/29 07:06:36;;;;;;;27.90;3.92;;;8.10;99.90;;;;;;4994740;28;20157;-65
2022/09/29 07:09:03;;;;;;;14.00;3.30;;;8.20;99.90;;;;;;5041560;28;20496;-64
2022/09/29 07:11:29;;;;;;;6.53;2.78;;;8.30;99.90;;;;;;4979853;28;20137;-62
2022/09/29 07:13:56;;;;;;;6.07;2.50;;;8.30;99.90;;;;;;5041602;28;20466;-64
2022/09/29 07:16:24;;;;;;;6.20;2.10;;;8.30;99.90;;;;;;5030006;28;20125;-65
2022/09/29 07:18:51;;;;;;;9.93;2.95;;;8.30;99.90;;;;;;5022873;28;20072;-64
2022/09/29 07:21:18;;;;;;;4.00;2.45;;;8.40;99.90;;;;;;4996253;28;20057;-64
2022/09/29 07:23:45;;;;;;;4.97;2.70;;;8.40;99.90;;;;;;5038097;28;20137;-64
2022/09/29 07:26:15;;;;;;;5.35;3.03;;;8.50;99.90;;;;;;5014912;28;20049;-64
2022/09/29 07:28:44;;;;;;;5.15;2.63;;;8.50;99.90;;;;;;5002718;28;20103;-65
2022/09/29 07:31:16;;;;;;;3.72;2.60;;;8.50;99.90;;;;;;5035126;28;20128;-66
2022/09/29 07:33:43;;;;;;;12.45;3.38;;;8.60;99.90;;;;;;5007089;28;20052;-64
2022/09/29 07:36:11;;;;;;;4.13;2.55;;;8.70;99.90;;;;;;5018578;28;20092;-65
2022/09/29 07:38:38;;;;;;;7.60;3.05;;;8.80;99.90;;;;;;5032843;28;20047;-66
2022/09/29 07:41:10;;;;;;;6.45;2.45;;;8.80;99.90;;;;;;5047395;28;20127;-65
2022/09/29 07:43:37;;;;;;;5.00;2.22;;;8.90;99.90;;;;;;5032565;28;20048;-65
2022/09/29 07:46:04;;;;;;;4.10;2.20;;;9.00;99.90;;;;;;5041807;28;20049;-65
2022/09/29 07:48:32;;;;;;;4.00;1.83;;;9.00;99.90;;;;;;5050985;28;20096;-66
2022/09/29 07:51:13;;;;;;;7.40;3.08;;;9.10;99.90;;;;;;5007131;28;20496;-64
2022/09/29 07:53:40;;;;;;;9.30;2.53;;;9.20;99.90;;;;;;5016317;28;20095;-65
2022/09/29 07:56:13;;;;;;;4.90;2.22;;;9.20;99.90;;;;;;5023269;28;20049;-65
2022/09/29 07:58:55;;;;;;;5.32;2.42;;;9.30;99.90;;;;;;5014555;28;20415;-64
2022/09/29 08:01:21;;;;;;;12.30;3.00;;;9.30;99.90;;;;;;5024007;28;20057;-64
2022/09/29 08:03:51;;;;;;;4.55;2.30;;;9.40;99.90;;;;;;5022822;28;20516;-64
2022/09/29 08:06:18;;;;;;;4.00;2.10;;;9.40;99.90;;;;;;5021617;28;20128;-64
2022/09/29 08:08:45;;;;;;;7.53;2.30;;;9.40;99.90;;;;;;5022923;28;20136;-62
2022/09/29 08:11:27;;;;;;;4.28;2.30;;;9.40;99.90;;;;;;5025184;28;20689;-63
2022/09/29 08:13:58;;;;;;;3.50;2.17;;;9.50;99.90;;;;;;4990874;28;20175;-64
2022/09/29 08:16:25;;;;;;;4.93;2.15;;;9.50;99.90;;;;;;5024139;28;20431;-65
2022/09/29 08:18:52;;;;;;;7.50;2.45;;;9.60;99.90;;;;;;5052016;28;20569;-65
2022/09/29 08:21:19;;;;;;;6.20;2.70;;;9.60;99.90;;;;;;5021215;28;20167;-64
2022/09/29 08:23:45;;;;;;;5.22;2.42;;;9.60;99.90;;;;;;5051675;28;20419;-64
2022/09/29 08:26:15;;;;;;;4.43;2.40;;;9.70;99.90;;;;;;5005565;28;20108;-65
2022/09/29 08:28:42;;;;;;;10.13;3.92;;;9.70;99.90;;;;;;5000653;28;20095;-64
2022/09/29 08:31:19;;;;;;;6.80;3.40;;;9.70;99.90;;;;;;5030547;28;20080;-65
2022/09/29 08:33:48;;;;;;;5.68;2.80;;;9.70;99.90;;;;;;5014170;28;20045;-64
2022/09/29 08:36:15;;;;;;;5.00;2.60;;;9.80;99.90;;;;;;5022427;28;20099;-64
2022/09/29 08:38:43;;;;;;;5.75;3.00;;;9.80;99.90;;;;;;5016122;28;20056;-64
2022/09/29 08:41:32;;;;;;;5.75;2.78;;;9.90;99.90;;;;;;5007654;28;20484;-62
2022/09/29 08:44:05;;;;;;;7.30;3.45;;;10.00;99.90;;;;;;5024444;28;20110;-64
2022/09/29 08:46:38;;;;;;;;;;;10.00;99.90;;;;;;5014010;28;20405;-65
2022/09/29 08:49:41;;;;;;;8.40;2.85;;;10.10;99.90;;;;;;5025946;28;19984;-65
2022/09/29 08:52:18;;;;;;;8.27;3.17;;;10.20;99.90;;;;;;5023587;28;20041;-65
2022/09/29 08:54:46;;;;;;;5.60;2.97;;;10.40;99.90;;;;;;5028286;28;20290;-66
2022/09/29 08:57:19;;;;;;;5.70;3.22;;;10.90;99.90;;;;;;5030631;28;20107;-64
2022/09/29 08:59:57;;;;;;;5.13;2.83;;;11.20;99.90;;;;;;5045601;28;20045;-64
2022/09/29 09:02:39;;;;;;;6.53;3.25;;;11.60;99.90;;;;;;5026504;28;20045;-63
2022/09/29 09:05:21;;;;;;;4.18;2.97;;;12.00;99.90;;;;;;5025338;28;20104;-63
2022/09/29 09:07:50;;;;;;;5.90;3.40;;;12.20;99.90;;;;;;5032494;28;20132;-64
2022/09/29 09:10:46;;;;;;;6.85;3.10;;;12.30;99.90;;;;;;5031821;28;20053;-64
2022/09/29 09:13:23;;;;;;;12.30;4.68;;;12.40;99.90;;;;;;5014746;28;20045;-63
2022/09/29 09:16:48;;;;;;;6.65;2.85;;;12.80;99.90;;;;;;5028584;28;20473;-64
2022/09/29 09:19:33;;;;;;;6.53;3.28;;;12.90;99.90;;;;;;5002318;28;20108;-64
2022/09/29 09:22:23;;;;;;;5.97;3.35;;;12.70;99.90;;;;;;5038045;28;20110;-64
2022/09/29 09:25:25;;;;;;;7.63;3.50;;;12.50;99.90;;;;;;5036326;28;20062;-64
2022/09/29 09:28:30;;;;;;;8.18;3.42;;;12.30;99.90;;;;;;5029520;28;20097;-64
2022/09/29 09:31:06;;;;;;;6.28;3.08;;;12.20;99.90;;;;;;5037179;28;20162;-64
2022/09/29 09:33:36;;;;;;;4.00;2.50;;;12.30;99.90;;;;;;5020143;28;20191;-64
2022/09/29 09:36:08;;;;;;;5.47;2.53;;;12.30;99.90;;;;;;5016319;28;20132;-64
2022/09/29 09:38:50;;;;;;;5.65;2.33;;;12.20;99.90;;;;;;4660720;28;10000593;-64
2022/09/29 09:41:18;;;;;;;4.13;2.00;;;12.20;99.90;;;;;;5027220;28;20127;-64
2022/09/29 09:43:47;;;;;;;4.40;2.63;;;12.20;99.90;;;;;;5004979;28;20050;-63
2022/09/29 09:46:19;;;;;;;5.10;2.90;;;12.20;99.90;;;;;;5032125;28;20049;-64
2022/09/29 09:48:57;;;;;;;11.02;2.72;;;12.30;99.90;;;;;;5040539;28;20099;-63
2022/09/29 09:51:48;;;;;;;5.30;2.33;;;12.30;99.90;;;;;;5016625;28;20079;-65
2022/09/29 09:54:26;;;;;;;9.35;2.40;;;12.40;99.90;;;;;;5037942;28;20047;-65
2022/09/29 09:57:23;;;;;;;6.95;2.78;;;12.40;99.90;;;;;;5017450;28;20355;-65
2022/09/29 10:00:17;;;;;;;4.40;2.40;;;12.40;99.90;;;;;;5037559;28;20055;-65
2022/09/29 10:02:51;;;;;;;10.82;2.65;;;12.50;99.90;;;;;;5017544;28;20041;-65
2022/09/29 10:05:20;;;;;;;8.85;3.45;;;12.60;99.90;;;;;;5042522;28;20114;-65
2022/09/29 10:07:49;;;;;;;10.35;3.33;;;12.70;99.90;;;;;;5016703;28;20140;-63
2022/09/29 10:10:21;;;;;;;5.88;3.30;;;12.80;99.90;;;;;;5021880;28;20045;-63
2022/09/29 10:13:00;;;;;;;8.40;3.70;;;12.80;99.90;;;;;;5001496;28;20053;-60
2022/09/29 10:15:42;;;;;;;5.55;2.80;;;12.90;99.90;;;;;;5000924;28;20049;-64
2022/09/29 10:18:14;;;;;;;7.82;2.75;;;12.90;99.90;;;;;;5032708;28;20053;-63
2022/09/29 10:20:41;;;;;;;11.90;2.95;;;13.10;99.90;;;;;;5022303;28;20373;-64
2022/09/29 10:23:27;;;;;;;7.63;2.80;;;13.30;99.90;;;;;;5016950;28;20084;-63
2022/09/29 10:26:01;;;;;;;3.95;1.58;;;13.40;99.90;;;;;;5008377;28;20049;-65
2022/09/29 10:28:36;;;;;;;4.90;2.50;;;13.40;99.90;;;;;;5013877;28;20048;-64
2022/09/29 10:31:25;;;;;;;7.90;3.10;;;13.40;99.90;;;;;;5024938;28;20201;-64
2022/09/29 10:33:57;;;;;;;7.28;2.70;;;13.50;99.90;;;;;;5001162;28;20085;-64
2022/09/29 10:36:45;;;;;;;9.90;2.85;;;13.50;99.90;;;;;;4994805;28;20524;-64
2022/09/29 10:39:33;;;;;;;10.48;3.78;;;13.50;99.90;;;;;;5015441;28;20049;-63
2022/09/29 10:42:01;;;;;;;9.93;2.88;;;13.50;99.90;;;;;;5044511;28;20071;-63
2022/09/29 10:44:30;;;;;;;5.88;2.30;;;13.60;99.90;;;;;;5052833;28;20148;-63
2022/09/29 10:46:57;;;;;;;12.93;2.83;;;13.70;99.90;;;;;;5043152;28;20047;-64
2022/09/29 10:49:27;;;;;;;9.80;3.47;;;13.70;99.90;;;;;;5052738;28;20492;-64
2022/09/29 10:52:04;;;;;;;7.93;2.80;;;13.80;99.90;;;;;;5025728;28;20095;-64
2022/09/29 10:54:36;;;;;;;4.18;2.28;;;13.70;99.90;;;;;;5034685;28;20053;-65
2022/09/29 10:57:14;;;;;;;10.27;2.90;;;13.80;99.90;;;;;;5025510;28;20041;-65
2022/09/29 10:59:48;;;;;;;9.40;2.60;;;13.80;99.90;;;;;;5019168;28;20105;-65
2022/09/29 11:02:29;;;;;;;7.60;2.80;;;13.90;99.90;;;;;;5025325;28;20131;-65
2022/09/29 11:04:58;;;;;;;3.05;2.13;;;14.00;99.90;;;;;;5018443;28;20423;-65
2022/09/29 11:07:25;;;;;;;11.20;3.10;;;14.00;99.90;;;;;;5024824;28;20462;-64
2022/09/29 11:09:53;;;;;;;5.68;2.88;;;14.10;99.90;;;;;;5053253;28;20512;-65
2022/09/29 11:12:32;;;;;;;9.07;3.45;;;14.20;99.90;;;;;;5024943;28;20056;-65
2022/09/29 11:15:07;;;;;;;6.95;3.88;;;14.30;99.90;;;;;;5036786;28;20049;-64
2022/09/29 11:17:37;;;;;;;5.93;2.72;;;14.50;99.90;;;;;;5011525;28;20055;-64
2022/09/29 11:20:09;;;;;;;9.27;3.75;;;14.60;99.90;;;;;;5016158;28;20493;-65
2022/09/29 11:22:47;;;;;;;3.75;2.03;;;14.70;99.90;;;;;;5018495;28;20045;-65
2022/09/29 11:25:30;;;;;;;2.30;1.70;;;14.70;99.90;;;;;;5035951;28;20491;-64
2022/09/29 11:28:22;;;;;;;7.47;2.60;;;14.70;99.90;;;;;;5044685;28;20052;-64
2022/09/29 11:31:07;;;;;;;2.40;1.50;;;14.60;99.90;;;;;;5034859;28;20058;-63
2022/09/29 11:33:47;;;;;;;5.13;1.52;;;14.50;99.90;;;;;;5042443;28;20153;-63
2022/09/29 11:36:34;;;;;;;7.45;2.05;;;14.40;99.90;;;;;;5035147;28;20055;-63
2022/09/29 11:39:18;;;;;;;4.80;2.10;;;14.40;99.90;;;;;;5023150;28;20052;-63
2022/09/29 11:42:22;;;;;;;3.75;1.58;;;14.30;99.90;;;;;;5017614;28;20451;-64
2022/09/29 11:44:57;;;;;;;3.67;1.92;;;14.30;99.90;;;;;;5027614;28;20049;-63
2022/09/29 11:47:54;;;;;;;2.40;1.50;;;14.30;99.90;;;;;;5045462;28;20045;-63
2022/09/29 11:50:22;;;;;;;5.47;1.95;;;14.40;99.90;;;;;;5034696;28;20051;-63
2022/09/29 11:53:08;;;;;;;6.72;1.50;;;14.50;99.90;;;;;;5008991;28;20055;-64
2022/09/29 11:55:59;;;;;;;5.75;1.50;;;14.60;99.90;;;;;;5035186;28;20059;-63
2022/09/29 11:58:56;;;;;;;2.78;1.00;;;14.70;99.90;;;;;;5039897;28;20501;-63
2022/09/29 12:01:29;;;;;;;2.63;1.30;;;14.90;99.90;;;;;;5053122;28;20467;-64
2022/09/29 12:04:21;;;;;;;2.35;1.10;;;15.00;99.90;;;;;;5028075;28;20045;-65
2022/09/29 12:07:04;;;;;;;6.35;1.55;;;15.10;99.90;;;;;;5033107;28;20053;-64
2022/09/29 12:09:52;;;;;;;7.03;1.70;;;15.00;99.90;;;;;;5034003;28;20060;-63
2022/09/29 12:12:25;;;;;;;3.55;1.80;;;15.10;99.90;;;;;;5033433;28;20042;-64
2022/09/29 12:15:21;;;;;;;6.10;1.87;;;15.10;99.90;;;;;;5023948;28;20136;-64
2022/09/29 12:18:12;;;;;;;4.38;1.63;;;15.10;99.90;;;;;;5015980;28;20049;-64
2022/09/29 12:20:44;;;;;;;6.15;1.60;;;15.10;99.90;;;;;;5045905;28;20052;-65
2022/09/29 12:23:12;;;;;;;3.67;1.38;;;15.20;99.90;;;;;;5015869;28;20045;-65
2022/09/29 12:25:49;;;;;;;7.05;1.40;;;15.20;99.90;;;;;;5010713;28;20049;-63
2022/09/29 12:28:18;;;;;;;4.07;1.65;;;15.30;99.90;;;;;;5017263;28;20404;-64
2022/09/29 12:30:46;;;;;;;2.72;1.27;;;15.30;99.90;;;;;;5044476;28;20051;-64
2022/09/29 12:33:30;;;;;;;8.13;1.20;;;15.30;99.90;;;;;;5050956;28;20462;-63
2022/09/29 12:39:32;;;;;;;5.03;1.08;;;15.10;99.90;;;;;;5006173;28;20160;-64
2022/09/29 12:42:28;;;;;;;2.22;0.90;;;15.00;99.90;;;;;;5050926;28;20553;-64
2022/09/29 12:45:11;;;;;;;2.03;1.13;;;14.90;99.90;;;;;;5014654;28;20136;-65
2022/09/29 12:47:56;;;;;;;5.05;1.60;;;14.90;99.90;;;;;;5034666;28;20056;-63
2022/09/29 12:50:40;;;;;;;3.03;1.17;;;14.90;99.90;;;;;;5039111;28;20057;-63
2022/09/29 12:53:22;;;;;;;8.60;1.23;;;14.80;99.90;;;;;;5018788;28;20085;-64
2022/09/29 12:56:03;;;;;;;5.38;1.38;;;14.80;99.90;;;;;;5040589;28;20136;-63
2022/09/29 12:58:48;;;;;;;8.15;1.77;;;14.80;99.90;;;;;;5051590;28;20087;-64
2022/09/29 13:01:26;;;;;;;6.60;1.95;;;14.70;99.90;;;;;;5024119;28;20129;-64
2022/09/29 13:04:31;;;;;;;6.18;1.10;;;14.70;99.90;;;;;;5033341;28;20122;-65
2022/09/29 13:07:17;;;;;;;3.22;1.17;;;14.80;99.90;;;;;;5025987;28;20049;-64
2022/09/29 13:09:55;;;;;;;3.03;0.98;;;14.90;99.90;;;;;;5030399;28;20219;-63
2022/09/29 13:12:45;;;;;;;1.23;0.77;;;15.00;99.90;;;;;;5045339;28;20049;-64
2022/09/29 13:15:22;;;;;;;4.00;1.30;;;15.10;99.90;;;;;;5027585;28;20103;-65
2022/09/29 13:17:56;;;;;;;5.80;1.42;;;15.30;99.90;;;;;;5030351;28;20088;-64
2022/09/29 13:20:25;;;;;;;3.00;0.98;;;15.50;99.90;;;;;;5045421;28;20129;-64
2022/09/29 13:23:31;;;;;;;4.68;1.45;;;15.60;99.90;;;;;;5050035;28;20049;-64
2022/09/29 13:26:15;;;;;;;6.18;1.23;;;15.80;99.00;;;;;;5033361;28;20432;-64
2022/09/29 13:28:53;;;;;;;3.70;0.83;;;15.80;96.90;;;;;;5031092;28;20045;-63
2022/09/29 13:31:21;;;;;;;2.00;0.68;;;15.70;99.50;;;;;;5046365;28;20080;-64